Time;durP1;ratioP1;P1;durP2;ratioP2;P2;SDS_P1;SDS_P2;PMS_P1;PMS_P2;Temp;Humidity;BMP_temperature;BMP_pressure;BME280_temperature;BME280_humidity;BME280_pressure;Samples;Min_cycle;Max_cycle;Signal;HPM_P1;HPM_P2
2022/11/11 00:01:32;;;;;;;;;;;9.00;99.90;;;;;;5023133;28;20337;-61
2022/11/11 00:04:00;;;;;;;;;;;9.00;99.90;;;;;;5016903;28;19975;-61
2022/11/11 00:06:28;;;;;;;;;;;8.90;99.90;;;;;;5018876;28;19972;-62
2022/11/11 00:08:56;;;;;;;;;;;8.90;99.90;;;;;;5012702;28;19992;-62
2022/11/11 00:11:23;;;;;;;;;;;9.10;99.90;;;;;;5016078;28;19969;-62
2022/11/11 00:13:51;;;;;;;;;;;9.00;99.90;;;;;;5023199;28;19964;-62
2022/11/11 00:16:19;;;;;;;;;;;9.00;99.90;;;;;;5014447;28;19969;-62
2022/11/11 00:27:05;;;;;;;;;;;8.90;99.90;;;;;;5018055;28;20062;-62
2022/11/11 00:29:33;;;;;;;;;;;8.80;99.90;;;;;;5004494;28;19965;-62
2022/11/11 00:37:30;;;;;;;;;;;8.80;99.90;;;;;;5018275;28;19975;-62
2022/11/11 00:39:57;;;;;;;;;;;8.80;99.90;;;;;;5025089;28;19972;-62
2022/11/11 00:42:25;;;;;;;;;;;8.60;99.90;;;;;;5026848;28;19995;-62
2022/11/11 00:44:53;;;;;;;;;;;8.70;99.90;;;;;;5022029;28;19972;-62
2022/11/11 00:52:56;;;;;;;;;;;8.60;99.90;;;;;;5026843;28;20307;-62
2022/11/11 00:55:24;;;;;;;;;;;8.60;99.90;;;;;;5035110;28;20342;-62
2022/11/11 00:57:51;;;;;;;;;;;8.60;99.90;;;;;;5019019;28;19991;-61
2022/11/11 01:00:19;;;;;;;;;;;8.60;99.90;;;;;;5015271;28;19972;-63
2022/11/11 01:02:47;;;;;;;;;;;8.70;99.90;;;;;;5026241;28;20125;-62
2022/11/11 01:05:16;;;;;;;;;;;8.70;99.90;;;;;;5034773;28;19992;-61
2022/11/11 01:07:44;;;;;;;;;;;8.70;99.90;;;;;;5034820;28;19975;-62
2022/11/11 01:10:12;;;;;;;;;;;8.60;99.90;;;;;;5015501;28;20338;-62
2022/11/11 01:12:40;;;;;;;;;;;8.60;99.90;;;;;;5014725;28;19996;-62
2022/11/11 01:15:08;;;;;;;;;;;8.60;99.90;;;;;;5015020;28;19968;-61
2022/11/11 01:17:36;;;;;;;;;;;8.70;99.90;;;;;;5014752;28;20015;-62
2022/11/11 01:20:04;;;;;;;;;;;8.60;99.90;;;;;;5013804;28;19976;-62
2022/11/11 01:22:33;;;;;;;;;;;8.70;99.90;;;;;;5014750;28;20048;-61
2022/11/11 01:25:01;;;;;;;;;;;8.60;99.90;;;;;;5014626;28;19969;-62
2022/11/11 01:27:31;;;;;;;;;;;8.60;99.90;;;;;;5029186;23;19968;31
2022/11/11 01:29:59;;;;;;;;;;;8.70;99.90;;;;;;5031026;28;20381;-65
2022/11/11 01:32:27;;;;;;;;;;;8.70;99.90;;;;;;5033900;28;19968;-66
2022/11/11 01:34:55;;;;;;;;;;;8.70;99.90;;;;;;5027761;28;20346;-65
2022/11/11 01:37:23;;;;;;;;;;;8.60;99.90;;;;;;5023341;28;19979;-64
2022/11/11 01:39:52;;;;;;;;;;;8.60;99.90;;;;;;5005677;28;20331;-65
2022/11/11 01:42:20;;;;;;;;;;;8.60;99.90;;;;;;4997559;28;20035;-65
2022/11/11 01:44:48;;;;;;;;;;;8.60;99.90;;;;;;5005020;28;20075;-64
2022/11/11 01:47:16;;;;;;;;;;;8.60;99.90;;;;;;5002305;28;20056;-64
2022/11/11 01:49:47;;;;;;;;;;;8.50;99.90;;;;;;5004527;28;19964;-66
2022/11/11 01:52:18;;;;;;;;;;;8.50;99.90;;;;;;5004023;28;20397;-65
2022/11/11 01:54:48;;;;;;;;;;;8.20;99.90;;;;;;5004999;28;20326;-65
2022/11/11 01:57:21;;;;;;;;;;;8.30;99.90;;;;;;5002595;28;20012;-65
2022/11/11 01:59:51;;;;;;;;;;;8.30;99.90;;;;;;5004674;28;19965;-65
2022/11/11 02:02:21;;;;;;;;;;;8.30;99.90;;;;;;5012373;28;19969;-65
2022/11/11 02:07:35;;;;;;;;;;;8.20;99.90;;;;;;5000300;28;19987;-65
2022/11/11 02:10:05;;;;;;;;;;;8.20;99.90;;;;;;5004102;28;20373;-66
2022/11/11 02:15:19;;;;;;;;;;;8.20;99.90;;;;;;5005022;28;19969;-65
2022/11/11 02:17:47;;;;;;;;;;;8.20;99.90;;;;;;5000621;28;20421;-64
2022/11/11 02:20:18;;;;;;;;;;;8.20;99.90;;;;;;5001107;28;20063;-65
2022/11/11 02:22:49;;;;;;;;;;;8.30;99.90;;;;;;5012652;28;20469;-65
2022/11/11 02:25:19;;;;;;;;;;;8.30;99.90;;;;;;5012449;28;19969;-64
2022/11/11 02:27:48;;;;;;;;;;;8.40;99.90;;;;;;5013021;28;19976;-65
2022/11/11 02:30:17;;;;;;;;;;;8.40;99.90;;;;;;5003995;28;19969;-63
2022/11/11 02:32:47;;;;;;;;;;;8.30;99.90;;;;;;5011312;28;20377;-65
2022/11/11 02:35:16;;;;;;;;;;;8.30;99.90;;;;;;5004273;28;19976;-64
2022/11/11 02:37:45;;;;;;;;;;;8.20;99.90;;;;;;5003250;28;19972;-64
2022/11/11 02:40:14;;;;;;;;;;;8.20;99.90;;;;;;5002823;28;20337;-64
2022/11/11 02:42:43;;;;;;;;;;;8.10;99.90;;;;;;5004585;28;19987;-64
2022/11/11 02:45:11;;;;;;;;;;;8.00;99.90;;;;;;5004744;28;19972;-64
2022/11/11 02:47:39;;;;;;;;;;;7.90;99.90;;;;;;4998730;28;19965;-64
2022/11/11 02:50:07;;;;;;;;;;;7.90;99.90;;;;;;5003882;28;19979;-64
2022/11/11 02:52:35;;;;;;;;;;;8.00;99.90;;;;;;5011968;28;20052;-64
2022/11/11 02:55:03;;;;;;;;;;;8.10;99.90;;;;;;5001310;28;20110;-64
2022/11/11 02:57:31;;;;;;;;;;;8.00;99.90;;;;;;4998869;28;20060;-64
2022/11/11 03:00:01;;;;;;;;;;;8.10;99.90;;;;;;5008917;28;19965;-64
2022/11/11 03:02:29;;;;;;;;;;;8.20;99.90;;;;;;5010362;28;19976;-65
2022/11/11 03:04:57;;;;;;;;;;;8.20;99.90;;;;;;5002633;28;19965;-65
2022/11/11 03:07:25;;;;;;;;;;;8.20;99.90;;;;;;4997258;28;20004;-65
2022/11/11 03:09:53;;;;;;;;;;;8.10;99.90;;;;;;5001141;28;19988;-64
2022/11/11 03:12:21;;;;;;;;;;;8.10;99.90;;;;;;5004235;28;19969;-64
2022/11/11 03:14:49;;;;;;;;;;;8.10;99.90;;;;;;5004071;28;20586;-64
2022/11/11 03:22:59;;;;;;;;;;;8.20;99.90;;;;;;5006303;28;20470;-64
2022/11/11 03:25:38;;;;;;;;;;;8.20;99.90;;;;;;5001894;28;19969;-64
2022/11/11 03:28:06;;;;;;;;;;;8.20;99.90;;;;;;5002310;28;19965;-65
2022/11/11 03:30:34;;;;;;;;;;;8.30;99.90;;;;;;5003673;28;20438;-64
2022/11/11 03:33:04;;;;;;;;;;;8.20;99.90;;;;;;5009621;28;19972;-64
2022/11/11 03:35:32;;;;;;;;;;;8.20;99.90;;;;;;5010031;28;19969;-64
2022/11/11 03:38:14;;;;;;;;;;;8.20;99.90;;;;;;5003233;28;19972;-65
2022/11/11 03:40:43;;;;;;;;;;;8.20;99.90;;;;;;5006372;28;20008;-64
2022/11/11 03:43:10;;;;;;;;;;;8.10;99.90;;;;;;4999074;28;19973;-64
2022/11/11 03:45:39;;;;;;;;;;;8.10;99.90;;;;;;5007696;28;19965;-65
2022/11/11 03:48:08;;;;;;;;;;;8.10;99.90;;;;;;5006715;28;19971;-65
2022/11/11 03:50:36;;;;;;;;;;;8.10;99.90;;;;;;5006133;28;20378;-64
2022/11/11 03:53:04;;;;;;;;;;;8.00;99.90;;;;;;5005698;28;20000;-65
2022/11/11 03:55:31;;;;;;;;;;;8.00;99.90;;;;;;5003846;28;19969;-65
2022/11/11 03:57:59;;;;;;;;;;;8.00;99.90;;;;;;5004290;28;19966;-64
2022/11/11 04:00:28;;;;;;;;;;;8.00;99.90;;;;;;5008429;28;19973;-65
2022/11/11 04:11:47;;;;;;;;;;;8.10;99.90;;;;;;4972906;28;19965;-65
2022/11/11 04:17:00;;;;;;;;;;;8.00;99.90;;;;;;4990166;28;19964;-65
2022/11/11 04:22:14;;;;;;;;;;;7.90;99.90;;;;;;5010696;28;20079;-64
2022/11/11 04:27:27;;;;;;;;;;;7.80;99.90;;;;;;5004964;28;19974;-64
2022/11/11 04:29:54;;;;;;;;;;;7.80;99.90;;;;;;5013520;28;19969;-64
2022/11/11 04:32:42;;;;;;;;;;;7.80;99.90;;;;;;5015310;28;19975;-64
2022/11/11 04:35:11;;;;;;;;;;;7.80;99.90;;;;;;5014427;28;20006;-64
2022/11/11 04:37:46;;;;;;;;;;;7.90;99.90;;;;;;5003211;28;19965;-65
2022/11/11 04:42:59;;;;;;;;;;;8.00;99.90;;;;;;5014424;28;19964;-64
2022/11/11 04:45:34;;;;;;;;;;;8.00;99.90;;;;;;5015022;28;19975;-64
2022/11/11 04:48:03;;;;;;;;;;;8.00;99.90;;;;;;5014147;28;20019;-64
2022/11/11 04:50:32;;;;;;;;;;;8.00;99.90;;;;;;5010371;28;19972;-64
2022/11/11 04:53:02;;;;;;;;;;;8.00;99.90;;;;;;5007562;28;20433;-64
2022/11/11 04:58:15;;;;;;;;;;;7.90;99.90;;;;;;5005263;28;19968;-64
2022/11/11 05:00:43;;;;;;;;;;;8.00;99.90;;;;;;5012187;28;19965;-64
2022/11/11 05:03:17;;;;;;;;;;;7.90;99.90;;;;;;5011126;28;20088;-64
2022/11/11 05:11:18;;;;;;;;;;;7.90;99.90;;;;;;5010838;28;20361;-64
2022/11/11 05:22:06;;;;;;;;;;;7.70;99.90;;;;;;4995391;28;19973;-65
2022/11/11 05:27:20;;;;;;;;;;;7.50;99.90;;;;;;5014253;28;20438;-64
2022/11/11 05:29:48;;;;;;;;;;;7.40;99.90;;;;;;5013523;28;19976;-64
2022/11/11 05:32:17;;;;;;;;;;;7.40;99.90;;;;;;5013965;28;19968;-64
2022/11/11 05:34:45;;;;;;;;;;;7.40;99.90;;;;;;5013699;28;19965;-64
2022/11/11 05:37:13;;;;;;;;;;;7.40;99.90;;;;;;5014420;28;19968;-65
2022/11/11 05:39:42;;;;;;;;;;;7.50;99.90;;;;;;5013706;28;19975;-64
2022/11/11 05:42:10;;;;;;;;;;;7.60;99.90;;;;;;5014344;28;20059;-64
2022/11/11 05:44:38;;;;;;;;;;;7.60;99.90;;;;;;5014334;28;19969;-64
2022/11/11 05:47:06;;;;;;;;;;;7.60;99.90;;;;;;5011329;28;20060;-64
2022/11/11 05:49:34;;;;;;;;;;;7.60;99.90;;;;;;5013098;28;19973;-64
2022/11/11 05:52:02;;;;;;;;;;;7.70;99.90;;;;;;5014073;28;20485;-65
2022/11/11 05:54:29;;;;;;;;;;;7.70;99.90;;;;;;5013339;28;19972;-64
2022/11/11 05:56:59;;;;;;;;;;;7.70;99.90;;;;;;5013314;28;19969;-64
2022/11/11 05:59:27;;;;;;;;;;;7.70;99.90;;;;;;5010607;28;19968;-64
2022/11/11 06:01:54;;;;;;;;;;;7.60;99.90;;;;;;5013301;28;19996;-64
2022/11/11 06:04:22;;;;;;;;;;;7.50;99.90;;;;;;5012631;28;19968;-64
2022/11/11 06:06:50;;;;;;;;;;;7.40;99.90;;;;;;5002523;28;19969;-64
2022/11/11 06:09:18;;;;;;;;;;;7.20;99.90;;;;;;5006548;28;20385;-64
2022/11/11 06:11:45;;;;;;;;;;;7.10;99.90;;;;;;4993510;28;19976;-64
2022/11/11 06:14:14;;;;;;;;;;;7.00;99.90;;;;;;5009041;28;19968;-63
2022/11/11 06:16:42;;;;;;;;;;;6.90;99.90;;;;;;5005118;28;19965;-64
2022/11/11 06:19:10;;;;;;;;;;;6.80;99.90;;;;;;5009518;28;20449;-64
2022/11/11 06:24:19;;;;;;;;;;;6.60;99.90;;;;;;5008272;28;20015;-65
2022/11/11 06:26:52;;;;;;;;;;;6.50;99.90;;;;;;5012823;28;20445;-64
2022/11/11 06:29:21;;;;;;;;;;;6.40;99.90;;;;;;5012490;28;19969;-64
2022/11/11 06:31:49;;;;;;;;;;;6.40;99.90;;;;;;5012356;28;20063;-64
2022/11/11 06:34:16;;;;;;;;;;;6.40;99.90;;;;;;5013136;28;20349;-64
2022/11/11 06:36:44;;;;;;;;;;;6.40;99.90;;;;;;5013484;28;19973;-64
2022/11/11 06:39:12;;;;;;;;;;;6.40;99.90;;;;;;5013009;28;19969;-64
2022/11/11 06:41:40;;;;;;;;;;;6.50;99.90;;;;;;5012466;28;19969;-64
2022/11/11 06:44:07;;;;;;;;;;;6.60;99.90;;;;;;5013117;28;20442;-64
2022/11/11 06:46:36;;;;;;;;;;;6.60;99.90;;;;;;5012812;28;20171;-64
2022/11/11 06:49:04;;;;;;;;;;;6.60;99.90;;;;;;5012525;28;20100;-64
2022/11/11 06:51:32;;;;;;;;;;;6.70;99.90;;;;;;5012316;28;19980;-64
2022/11/11 06:54:00;;;;;;;;;;;6.70;99.90;;;;;;5013176;28;19979;-64
2022/11/11 06:56:27;;;;;;;;;;;6.70;99.90;;;;;;5012866;28;19968;-64
2022/11/11 06:58:55;;;;;;;;;;;6.70;99.90;;;;;;5012635;28;20481;-64
2022/11/11 07:01:23;;;;;;;;;;;6.60;99.90;;;;;;5013178;28;20438;-64
2022/11/11 07:03:52;;;;;;;;;;;6.60;99.90;;;;;;5012936;28;20012;-64
2022/11/11 07:06:19;;;;;;;;;;;6.60;99.90;;;;;;5012559;28;19973;-64
2022/11/11 07:08:47;;;;;;;;;;;6.50;99.90;;;;;;5012586;28;20068;-64
2022/11/11 07:11:15;;;;;;;;;;;6.50;99.90;;;;;;5011945;28;19987;-64
2022/11/11 07:13:46;;;;;;;;;;;6.40;99.90;;;;;;5012517;28;20060;-64
2022/11/11 07:16:13;;;;;;;;;;;6.40;99.90;;;;;;5012688;28;20079;-64
2022/11/11 07:18:41;;;;;;;;;;;6.40;99.90;;;;;;5012346;28;19975;-64
2022/11/11 07:21:10;;;;;;;;;;;6.50;99.90;;;;;;5011769;28;20027;-64
2022/11/11 07:23:38;;;;;;;;;;;6.60;99.90;;;;;;5012418;28;19995;-64
2022/11/11 07:26:06;;;;;;;;;;;6.60;99.90;;;;;;5012356;28;19968;-64
2022/11/11 07:28:33;;;;;;;;;;;6.60;99.90;;;;;;5012974;28;20349;-64
2022/11/11 07:31:01;;;;;;;;;;;6.60;99.90;;;;;;5011695;28;20005;-64
2022/11/11 07:33:29;;;;;;;;;;;6.60;99.90;;;;;;5011910;28;19975;-63
2022/11/11 07:35:56;;;;;;;;;;;6.60;99.90;;;;;;5012344;28;19969;-64
2022/11/11 07:38:25;;;;;;;;;;;6.60;99.90;;;;;;5012332;28;19980;-64
2022/11/11 07:40:54;;;;;;;;;;;6.70;99.90;;;;;;5011255;28;20405;-64
2022/11/11 07:43:23;;;;;;;;;;;6.60;99.90;;;;;;5012041;28;19968;-64
2022/11/11 07:45:51;;;;;;;;;;;6.70;99.90;;;;;;5012233;28;20454;-64
2022/11/11 07:48:19;;;;;;;;;;;6.70;99.90;;;;;;5011969;28;19975;-64
2022/11/11 07:50:46;;;;;;;;;;;6.80;99.90;;;;;;5011589;28;19980;-64
2022/11/11 07:53:14;;;;;;;;;;;6.70;99.90;;;;;;5011896;28;19975;-64
2022/11/11 07:55:44;;;;;;;;;;;6.70;99.90;;;;;;5011999;28;20016;-64
2022/11/11 07:58:12;;;;;;;;;;;6.90;99.90;;;;;;5011965;28;19969;-64
2022/11/11 08:00:40;;;;;;;;;;;6.90;99.90;;;;;;5011184;28;19965;-64
2022/11/11 08:03:08;;;;;;;;;;;6.90;99.90;;;;;;5011597;28;19964;-64
2022/11/11 08:05:36;;;;;;;;;;;6.80;99.90;;;;;;5012035;28;19973;-64
2022/11/11 08:08:04;;;;;;;;;;;6.90;99.90;;;;;;5011684;28;19968;-64
2022/11/11 08:10:32;;;;;;;;;;;6.80;99.90;;;;;;5011147;28;20379;-64
2022/11/11 08:15:47;;;;;;;;;;;6.90;99.90;;;;;;5012003;28;19983;-64
2022/11/11 08:18:15;;;;;;;;;;;7.10;99.90;;;;;;5010565;28;19973;-64
2022/11/11 08:20:43;;;;;;;;;;;7.20;99.90;;;;;;5008810;28;19975;-63
2022/11/11 08:23:21;;;;;;;;;;;7.20;99.90;;;;;;5011180;28;19969;-64
2022/11/11 08:26:08;;;;;;;;;;;7.40;99.90;;;;;;5007931;28;19969;-64
2022/11/11 08:28:37;;;;;;;;;;;7.40;99.90;;;;;;5011331;28;19973;-63
2022/11/11 08:31:05;;;;;;;;;;;7.50;99.90;;;;;;5010826;28;20083;-65
2022/11/11 08:33:33;;;;;;;;;;;7.50;99.90;;;;;;5011212;28;19969;-64
2022/11/11 08:36:02;;;;;;;;;;;7.50;99.90;;;;;;5012350;28;19964;-65
2022/11/11 08:38:29;;;;;;;;;;;7.50;99.90;;;;;;5003080;28;19979;-64
2022/11/11 08:40:59;;;;;;;;;;;7.60;99.90;;;;;;5008754;28;19987;-66
2022/11/11 08:43:31;;;;;;;;;;;7.60;99.90;;;;;;5009271;28;20056;-64
2022/11/11 08:46:05;;;;;;;;;;;7.60;99.90;;;;;;5009900;28;19965;-64
2022/11/11 08:48:33;;;;;;;;;;;7.70;99.90;;;;;;5004082;28;19969;-64
2022/11/11 08:51:00;;;;;;;;;;;7.60;99.90;;;;;;4990970;28;20460;-64
2022/11/11 08:53:28;;;;;;;;;;;7.60;99.90;;;;;;4998077;28;20068;-64
2022/11/11 08:55:56;;;;;;;;;;;7.70;99.90;;;;;;5006743;28;19979;-64
2022/11/11 08:58:24;;;;;;;;;;;7.70;99.90;;;;;;5014870;28;19975;-64
2022/11/11 09:00:51;;;;;;;;;;;7.60;99.90;;;;;;5013838;28;19964;-65
2022/11/11 09:03:20;;;;;;;;;;;7.60;99.90;;;;;;5013259;28;19969;-64
2022/11/11 09:05:49;;;;;;;;;;;7.60;99.90;;;;;;5015058;28;20006;-65
2022/11/11 09:08:17;;;;;;;;;;;7.50;99.90;;;;;;5014756;28;20005;-64
2022/11/11 09:10:44;;;;;;;;;;;7.60;99.90;;;;;;5013118;28;19981;-64
2022/11/11 09:13:12;;;;;;;;;;;7.50;99.90;;;;;;5014842;28;20056;-65
2022/11/11 09:15:40;;;;;;;;;;;7.50;99.90;;;;;;5014894;28;19979;-64
2022/11/11 09:18:09;;;;;;;;;;;7.40;99.90;;;;;;5014692;28;20364;-63
2022/11/11 09:20:38;;;;;;;;;;;7.50;99.90;;;;;;5014102;28;19980;-64
2022/11/11 09:23:06;;;;;;;;;;;7.40;99.90;;;;;;5014552;28;20376;-63
2022/11/11 09:25:33;;;;;;;;;;;7.50;99.90;;;;;;5014562;28;19967;-64
2022/11/11 09:28:02;;;;;;;;;;;7.50;99.90;;;;;;5014449;28;20019;-64
2022/11/11 09:30:29;;;;;;;;;;;7.60;99.90;;;;;;5013864;28;19976;-64
2022/11/11 09:33:01;;;;;;;;;;;7.60;99.90;;;;;;5014297;28;19972;-64
2022/11/11 09:35:29;;;;;;;;;;;7.60;99.90;;;;;;5014128;28;20373;-64
2022/11/11 09:37:58;;;;;;;;;;;7.70;99.90;;;;;;5014453;28;20353;-64
2022/11/11 09:40:27;;;;;;;;;;;7.70;99.90;;;;;;5013839;28;20434;-64
2022/11/11 09:42:59;;;;;;;;;;;7.80;99.90;;;;;;5014457;28;20056;-65
2022/11/11 09:45:30;;;;;;;;;;;7.90;99.90;;;;;;5014682;28;20030;-64
2022/11/11 09:48:05;;;;;;;;;;;7.90;99.90;;;;;;5014275;28;19976;-64
2022/11/11 09:50:38;;;;;;;;;;;8.00;99.90;;;;;;5013620;28;20068;-63
2022/11/11 09:53:13;;;;;;;;;;;8.00;99.90;;;;;;5014198;28;19969;-64
2022/11/11 09:55:42;;;;;;;;;;;8.10;99.90;;;;;;5014026;28;19975;-64
2022/11/11 09:58:13;;;;;;;;;;;8.10;99.90;;;;;;5014039;28;20418;-64
2022/11/11 10:00:42;;;;;;;;;;;8.00;99.90;;;;;;5013187;28;20055;-64
2022/11/11 10:03:14;;;;;;;;;;;8.00;99.90;;;;;;5013488;28;20042;-64
2022/11/11 10:05:45;;;;;;;;;;;8.00;99.90;;;;;;5013423;28;19980;-64
2022/11/11 10:08:16;;;;;;;;;;;8.10;99.90;;;;;;5013951;28;19991;-66
2022/11/11 10:10:49;;;;;;;;;;;8.10;99.90;;;;;;5013221;28;20006;-64
2022/11/11 10:13:24;;;;;;;;;;;8.20;99.90;;;;;;5013791;28;19991;-65
2022/11/11 10:15:57;;;;;;;;;;;8.20;99.90;;;;;;5013569;28;20438;-65
2022/11/11 10:18:42;;;;;;;;;;;8.30;99.90;;;;;;5013578;28;20072;-65
2022/11/11 10:21:13;;;;;;;;;;;8.30;99.90;;;;;;5012882;28;20917;-65
2022/11/11 10:23:46;;;;;;;;;;;8.40;99.90;;;;;;5013489;28;20060;-65
2022/11/11 10:26:18;;;;;;;;;;;8.30;99.90;;;;;;5013764;28;20479;-65
2022/11/11 10:28:47;;;;;;;;;;;8.30;99.90;;;;;;5013418;28;19988;-65
2022/11/11 10:31:16;;;;;;;;;;;8.50;99.90;;;;;;5012583;28;19969;-65
2022/11/11 10:33:47;;;;;;;;;;;8.50;99.90;;;;;;5012445;28;20038;-64
2022/11/11 10:36:17;;;;;;;;;;;8.50;99.90;;;;;;5013134;28;19973;-64
2022/11/11 10:38:50;;;;;;;;;;;8.60;99.90;;;;;;5012672;28;19991;-64
2022/11/11 10:41:20;;;;;;;;;;;8.60;99.90;;;;;;5012032;28;19979;-64
2022/11/11 10:43:48;;;;;;;;;;;8.60;99.90;;;;;;5012354;28;19969;-65
2022/11/11 10:46:18;;;;;;;;;;;8.60;99.90;;;;;;5012518;28;19969;-65
2022/11/11 10:48:50;;;;;;;;;;;8.60;99.90;;;;;;5012598;28;19975;-65
2022/11/11 10:51:19;;;;;;;;;;;8.60;99.90;;;;;;5011620;28;20008;-65
2022/11/11 10:53:55;;;;;;;;;;;8.60;99.90;;;;;;5012466;28;19973;-66
2022/11/11 10:56:26;;;;;;;;;;;8.60;99.90;;;;;;5012538;28;20072;-64
2022/11/11 10:58:56;;;;;;;;;;;8.60;99.90;;;;;;5012292;28;20067;-64
2022/11/11 11:01:27;;;;;;;;;;;8.60;99.90;;;;;;5011508;28;20026;-64
2022/11/11 11:03:58;;;;;;;;;;;8.50;99.90;;;;;;5012011;28;20454;-64
2022/11/11 11:06:27;;;;;;;;;;;8.60;99.90;;;;;;5012305;28;19969;-64
2022/11/11 11:09:02;;;;;;;;;;;8.60;99.90;;;;;;5012218;28;20441;-64
2022/11/11 11:11:31;;;;;;;;;;;8.70;99.90;;;;;;5011303;28;19969;-64
2022/11/11 11:14:00;;;;;;;;;;;8.70;99.90;;;;;;5012000;28;19972;-64
2022/11/11 11:16:31;;;;;;;;;;;8.70;99.90;;;;;;5011126;28;19969;-65
2022/11/11 11:19:14;;;;;;;;;;;8.80;99.90;;;;;;5012001;28;19976;-65
2022/11/11 11:21:52;;;;;;;;;;;8.90;99.90;;;;;;5008992;28;19968;-64
2022/11/11 11:24:22;;;;;;;;;;;9.00;99.90;;;;;;5011668;28;19975;-64
2022/11/11 11:26:51;;;;;;;;;;;9.10;99.90;;;;;;5011904;28;19987;-64
2022/11/11 11:29:31;;;;;;;;;;;9.10;99.90;;;;;;5011594;28;19969;-64
2022/11/11 11:32:12;;;;;;;;;;;9.10;99.90;;;;;;5011187;28;19978;-63
2022/11/11 11:34:45;;;;;;;;;;;9.20;99.90;;;;;;5011399;28;19991;-64
2022/11/11 11:37:13;;;;;;;;;;;9.30;99.90;;;;;;5011581;28;19975;-64
2022/11/11 11:39:42;;;;;;;;;;;9.30;99.90;;;;;;5011130;28;20091;-64
2022/11/11 11:42:27;;;;;;;;;;;9.30;99.90;;;;;;5011841;28;20430;-64
2022/11/11 11:44:54;;;;;;;;;;;9.30;99.90;;;;;;5011923;28;19976;-64
2022/11/11 11:47:29;;;;;;;;;;;9.40;99.90;;;;;;5011832;28;19969;-64
2022/11/11 11:50:08;;;;;;;;;;;9.50;99.90;;;;;;5011228;28;19969;-64
2022/11/11 11:52:41;;;;;;;;;;;9.50;99.90;;;;;;5011398;28;19987;-64
2022/11/11 11:55:15;;;;;;;;;;;9.50;99.90;;;;;;5011361;28;20035;-64
2022/11/11 11:57:47;;;;;;;;;;;9.40;99.90;;;;;;5011697;28;20059;-64
2022/11/11 12:00:17;;;;;;;;;;;9.40;99.90;;;;;;5010861;28;19969;-64
2022/11/11 12:02:54;;;;;;;;;;;9.40;99.90;;;;;;5011361;28;19980;-64
2022/11/11 12:05:24;;;;;;;;;;;9.50;99.90;;;;;;5011973;28;20365;-64
2022/11/11 12:07:58;;;;;;;;;;;9.50;99.90;;;;;;5011197;28;20435;-63
2022/11/11 12:10:37;;;;;;;;;;;9.50;99.90;;;;;;5010920;28;19973;-64
2022/11/11 12:13:16;;;;;;;;;;;9.50;99.90;;;;;;5010980;28;20007;-64
2022/11/11 12:15:50;;;;;;;;;;;9.50;99.90;;;;;;5011532;28;20349;-64
2022/11/11 12:18:26;;;;;;;;;;;9.50;99.90;;;;;;5011280;28;20353;-64
2022/11/11 12:20:57;;;;;;;;;;;9.50;99.90;;;;;;5010911;28;19969;-64
2022/11/11 12:23:45;;;;;;;;;;;9.50;99.90;;;;;;5010711;28;19975;-64
2022/11/11 12:26:18;;;;;;;;;;;9.50;99.90;;;;;;5008885;28;20060;-65
2022/11/11 12:28:51;;;;;;;;;;;9.50;99.90;;;;;;5014763;28;19969;-64
2022/11/11 12:31:25;;;;;;;;;;;9.50;99.90;;;;;;5014682;28;19969;-64
2022/11/11 12:33:58;;;;;;;;;;;9.60;99.90;;;;;;5014935;28;19968;-65
2022/11/11 12:36:29;;;;;;;;;;;9.60;99.90;;;;;;5015023;28;19975;-64
2022/11/11 12:38:58;;;;;;;;;;;9.50;99.90;;;;;;5014774;28;19973;-64
2022/11/11 12:41:30;;;;;;;;;;;9.50;99.90;;;;;;5014108;28;19973;-64
2022/11/11 12:44:03;;;;;;;;;;;9.40;99.90;;;;;;5014820;28;20051;-63
2022/11/11 12:46:36;;;;;;;;;;;9.40;99.90;;;;;;5014860;28;19975;-64
2022/11/11 12:49:08;;;;;;;;;;;9.40;99.90;;;;;;5014517;28;20071;-64
2022/11/11 12:51:40;;;;;;;;;;;9.30;99.90;;;;;;5014146;28;20059;-64
2022/11/11 12:54:16;;;;;;;;;;;9.30;99.90;;;;;;5010273;28;20362;-63
2022/11/11 12:56:49;;;;;;;;;;;9.20;99.90;;;;;;5014791;28;20353;-63
2022/11/11 12:59:21;;;;;;;;;;;9.20;99.90;;;;;;5014582;28;20067;-64
2022/11/11 13:01:51;;;;;;;;;;;9.20;99.90;;;;;;5013443;28;20342;-65
2022/11/11 13:04:35;;;;;;;;;;;9.20;99.90;;;;;;5014333;28;19973;-66
2022/11/11 13:07:16;;;;;;;;;;;9.30;99.90;;;;;;5013959;28;20356;-64
2022/11/11 13:09:57;;;;;;;;;;;9.30;99.90;;;;;;5013540;28;19973;-64
2022/11/11 13:12:29;;;;;;;;;;;9.20;99.90;;;;;;5014134;28;19980;-64
2022/11/11 13:15:01;;;;;;;;;;;9.10;99.90;;;;;;5014225;28;20013;-65
2022/11/11 13:17:30;;;;;;;;;;;9.10;99.90;;;;;;5014213;28;20624;-64
2022/11/11 13:20:00;;;;;;;;;;;9.10;99.90;;;;;;5013425;28;20322;-64
2022/11/11 13:22:28;;;;;;;;;;;9.10;99.90;;;;;;5013510;28;19969;-64
2022/11/11 13:24:57;;;;;;;;;;;9.10;99.90;;;;;;5013779;28;19968;-64
2022/11/11 13:27:29;;;;;;;;;;;9.20;99.90;;;;;;5014192;28;20012;-64
2022/11/11 13:30:03;;;;;;;;;;;9.20;99.90;;;;;;5119517;22;19973;-62
2022/11/11 13:32:33;;;;;;;;;;;9.20;99.90;;;;;;5013388;28;20438;-61
2022/11/11 13:35:01;;;;;;;;;;;9.20;99.90;;;;;;5013609;28;19968;-64
2022/11/11 13:37:32;;;;;;;;;;;9.20;99.90;;;;;;5013305;28;20063;-64
2022/11/11 13:40:02;;;;;;;;;;;9.30;99.90;;;;;;5012721;28;20446;-64
2022/11/11 13:42:36;;;;;;;;;;;9.30;99.90;;;;;;5013664;28;19975;-64
2022/11/11 13:45:03;;;;;;;;;;;9.30;99.90;;;;;;5013750;28;19969;-64
2022/11/11 13:47:34;;;;;;;;;;;9.30;99.90;;;;;;5013794;28;19995;-64
2022/11/11 13:50:04;;;;;;;;;;;9.40;99.90;;;;;;5012747;28;19968;-64
2022/11/11 13:52:33;;;;;;;;;;;9.40;99.90;;;;;;5012978;28;19979;-64
2022/11/11 13:55:02;;;;;;;;;;;9.50;99.90;;;;;;5013316;28;19971;-64
2022/11/11 13:57:33;;;;;;;;;;;9.40;99.90;;;;;;5013454;28;20442;-65
2022/11/11 14:05:27;;;;;;;;;;;9.50;99.90;;;;;;5088508;28;19960;-64
2022/11/11 14:07:58;;;;;;;;;;;9.40;99.90;;;;;;5088703;28;19972;-65
2022/11/11 14:10:45;;;;;;;;;;;9.50;99.90;;;;;;5067474;28;19968;-64
2022/11/11 14:13:33;;;;;;;;;;;9.40;99.90;;;;;;5068135;28;20642;-65
2022/11/11 14:16:01;;;;;;;;;;;9.50;99.90;;;;;;5068263;28;19971;-65
2022/11/11 14:18:36;;;;;;;;;;;9.40;99.90;;;;;;5068264;28;19968;-65
2022/11/11 14:21:05;;;;;;;;;;;9.50;99.90;;;;;;5067283;28;19968;-65
2022/11/11 14:23:36;;;;;;;;;;;9.50;99.90;;;;;;5067679;28;19986;-65
2022/11/11 14:26:31;;;;;;;;;;;9.50;99.90;;;;;;5068062;28;20058;-65
2022/11/11 14:29:02;;;;;;;;;;;9.50;99.90;;;;;;5043782;28;19972;-65
2022/11/11 14:31:37;;;;;;;;;;;9.30;99.90;;;;;;5066892;28;20355;-64
2022/11/11 14:34:07;;;;;;;;;;;9.10;99.90;;;;;;5068405;28;20400;-65
2022/11/11 14:36:41;;;;;;;;;;;9.10;99.90;;;;;;5067811;28;19974;-65
2022/11/11 14:39:14;;;;;;;;;;;9.10;99.90;;;;;;5067763;28;19968;-65
2022/11/11 14:41:47;;;;;;;;;;;9.00;99.90;;;;;;5066686;28;19968;-65
2022/11/11 14:44:34;;;;;;;;;;;9.00;99.90;;;;;;5067801;28;20419;-65
2022/11/11 14:47:17;;;;;;;;;;;9.10;99.90;;;;;;5067716;28;20058;-65
2022/11/11 14:49:46;;;;;;;;;;;9.00;99.90;;;;;;5067066;28;19972;-65
2022/11/11 14:52:18;;;;;;;;;;;9.00;99.90;;;;;;5067079;28;20071;-65
2022/11/11 14:54:54;;;;;;;;;;;9.00;99.90;;;;;;5067275;28;20058;-65
2022/11/11 14:57:24;;;;;;;;;;;9.10;99.90;;;;;;5067418;28;19991;-65
2022/11/11 14:59:52;;;;;;;;;;;9.10;99.90;;;;;;5066652;28;19972;-65
2022/11/11 15:02:38;;;;;;;;;;;9.10;99.90;;;;;;5067439;28;19972;-64
2022/11/11 15:05:10;;;;;;;;;;;9.10;99.90;;;;;;5085425;28;19978;-64
2022/11/11 15:07:52;;;;;;;;;;;9.00;99.90;;;;;;5087448;28;20021;-65
2022/11/11 15:10:22;;;;;;;;;;;9.00;99.90;;;;;;5086759;28;20469;-65
2022/11/11 15:12:57;;;;;;;;;;;8.90;99.90;;;;;;5087217;28;19974;-64
2022/11/11 15:15:26;;;;;;;;;;;8.80;99.90;;;;;;5081790;28;19968;-64
2022/11/11 15:18:02;;;;;;;;;;;8.70;99.90;;;;;;5073669;28;19974;-65
2022/11/11 15:20:44;;;;;;;;;;;8.60;99.90;;;;;;5073002;28;19975;-64
2022/11/11 15:23:17;;;;;;;;;;;8.50;99.90;;;;;;5073398;28;19963;-65
2022/11/11 15:25:49;;;;;;;;;;;8.40;99.90;;;;;;5073735;28;19975;-65
2022/11/11 15:28:39;;;;;;;;;;;8.40;99.90;;;;;;5073791;28;19978;-65
2022/11/11 15:31:12;;;;;;;;;;;8.40;99.90;;;;;;5072704;28;20417;-64
2022/11/11 15:33:44;;;;;;;;;;;8.40;99.90;;;;;;5073669;28;20447;-64
2022/11/11 15:36:16;;;;;;;;;;;8.40;99.90;;;;;;5073615;28;19974;-65
2022/11/11 15:38:46;;;;;;;;;;;8.30;99.90;;;;;;5073236;28;19968;-65
2022/11/11 15:41:22;;;;;;;;;;;8.40;99.90;;;;;;5072363;28;19990;-64
2022/11/11 15:43:50;;;;;;;;;;;8.30;99.90;;;;;;5073068;28;19978;-64
2022/11/11 15:46:22;;;;;;;;;;;8.40;99.90;;;;;;5073490;28;19968;-64
2022/11/11 15:48:50;;;;;;;;;;;8.40;99.90;;;;;;5073118;28;19990;-65
2022/11/11 15:51:26;;;;;;;;;;;8.30;99.90;;;;;;5072408;28;20067;-64
2022/11/11 15:54:08;;;;;;;;;;;8.30;99.90;;;;;;5073029;28;20352;-64
2022/11/11 15:56:37;;;;;;;;;;;8.20;99.90;;;;;;5073048;28;19971;-65
2022/11/11 15:59:15;;;;;;;;;;;8.30;99.90;;;;;;5073159;28;20102;-65
2022/11/11 16:01:43;;;;;;;;;;;8.40;99.90;;;;;;5071965;28;19978;-65
2022/11/11 16:04:14;;;;;;;;;;;8.40;99.90;;;;;;5072699;28;19968;-65
2022/11/11 16:07:02;;;;;;;;;;;8.30;99.90;;;;;;5072824;28;19968;-64
2022/11/11 16:09:31;;;;;;;;;;;8.40;99.90;;;;;;5072434;28;19971;-65
2022/11/11 16:11:59;;;;;;;;;;;8.40;99.90;;;;;;5072268;28;19971;-65